sensor_id;sensor_type;location;lat;lon;timestamp;temperature;humidity
52743;DHT22;55583;53.012;6.556;2023-03-23T00:00:06;10.60;99.90
52743;DHT22;55583;53.012;6.556;2023-03-23T00:02:32;10.60;99.90
52743;DHT22;55583;53.012;6.556;2023-03-23T00:05:01;10.60;99.90
52743;DHT22;55583;53.012;6.556;2023-03-23T00:07:29;10.60;99.90
52743;DHT22;55583;53.012;6.556;2023-03-23T00:09:55;10.60;99.90
52743;DHT22;55583;53.012;6.556;2023-03-23T00:12:22;10.60;99.90
52743;DHT22;55583;53.012;6.556;2023-03-23T00:14:55;10.80;99.90
52743;DHT22;55583;53.012;6.556;2023-03-23T00:17:20;10.60;99.90
52743;DHT22;55583;53.012;6.556;2023-03-23T00:19:46;10.60;99.90
52743;DHT22;55583;53.012;6.556;2023-03-23T00:22:13;10.60;99.90
52743;DHT22;55583;53.012;6.556;2023-03-23T00:24:39;10.70;99.90
52743;DHT22;55583;53.012;6.556;2023-03-23T00:27:05;10.70;99.90
52743;DHT22;55583;53.012;6.556;2023-03-23T00:29:30;10.70;99.90
52743;DHT22;55583;53.012;6.556;2023-03-23T00:31:57;10.80;99.90
52743;DHT22;55583;53.012;6.556;2023-03-23T00:34:23;11.00;99.90
52743;DHT22;55583;53.012;6.556;2023-03-23T00:36:54;10.60;99.90
52743;DHT22;55583;53.012;6.556;2023-03-23T00:39:22;10.60;99.90
52743;DHT22;55583;53.012;6.556;2023-03-23T00:41:50;10.60;99.90
52743;DHT22;55583;53.012;6.556;2023-03-23T00:44:16;11.00;99.90
52743;DHT22;55583;53.012;6.556;2023-03-23T00:46:47;10.60;99.90
52743;DHT22;55583;53.012;6.556;2023-03-23T00:49:17;10.60;99.90
52743;DHT22;55583;53.012;6.556;2023-03-23T00:51:43;10.60;99.90
52743;DHT22;55583;53.012;6.556;2023-03-23T00:54:10;10.70;99.90
52743;DHT22;55583;53.012;6.556;2023-03-23T00:56:36;10.60;99.90
52743;DHT22;55583;53.012;6.556;2023-03-23T00:59:03;10.60;99.90
52743;DHT22;55583;53.012;6.556;2023-03-23T01:01:29;10.60;99.90
52743;DHT22;55583;53.012;6.556;2023-03-23T01:03:55;10.60;99.90
52743;DHT22;55583;53.012;6.556;2023-03-23T01:06:27;10.60;99.90
52743;DHT22;55583;53.012;6.556;2023-03-23T01:08:53;10.60;99.90
52743;DHT22;55583;53.012;6.556;2023-03-23T01:11:19;10.60;99.90
52743;DHT22;55583;53.012;6.556;2023-03-23T01:13:48;10.70;99.90
52743;DHT22;55583;53.012;6.556;2023-03-23T01:16:14;10.60;99.90
52743;DHT22;55583;53.012;6.556;2023-03-23T01:18:40;10.60;99.90
52743;DHT22;55583;53.012;6.556;2023-03-23T01:21:15;10.60;99.90
52743;DHT22;55583;53.012;6.556;2023-03-23T01:23:42;10.60;99.90
52743;DHT22;55583;53.012;6.556;2023-03-23T01:26:11;10.60;99.90
52743;DHT22;55583;53.012;6.556;2023-03-23T01:28:39;10.50;99.90
52743;DHT22;55583;53.012;6.556;2023-03-23T01:31:11;10.50;99.90
52743;DHT22;55583;53.012;6.556;2023-03-23T01:33:38;10.50;99.90
52743;DHT22;55583;53.012;6.556;2023-03-23T01:36:16;10.50;99.90
52743;DHT22;55583;53.012;6.556;2023-03-23T01:38:46;10.40;99.90
52743;DHT22;55583;53.012;6.556;2023-03-23T01:41:12;10.50;99.90
52743;DHT22;55583;53.012;6.556;2023-03-23T01:44:05;10.50;99.90
52743;DHT22;55583;53.012;6.556;2023-03-23T01:46:35;10.30;99.90
52743;DHT22;55583;53.012;6.556;2023-03-23T01:49:23;10.30;99.90
52743;DHT22;55583;53.012;6.556;2023-03-23T01:51:54;10.30;99.90
52743;DHT22;55583;53.012;6.556;2023-03-23T01:54:22;10.30;99.90
52743;DHT22;55583;53.012;6.556;2023-03-23T01:56:59;10.70;99.90
52743;DHT22;55583;53.012;6.556;2023-03-23T01:59:27;10.30;99.90
52743;DHT22;55583;53.012;6.556;2023-03-23T02:01:54;10.40;99.90
52743;DHT22;55583;53.012;6.556;2023-03-23T02:04:23;10.30;99.90
52743;DHT22;55583;53.012;6.556;2023-03-23T02:06:51;10.30;99.90
52743;DHT22;55583;53.012;6.556;2023-03-23T02:09:18;10.40;99.90
52743;DHT22;55583;53.012;6.556;2023-03-23T02:11:45;10.30;99.90
52743;DHT22;55583;53.012;6.556;2023-03-23T02:14:11;10.30;99.90
52743;DHT22;55583;53.012;6.556;2023-03-23T02:22:43;10.30;99.90
52743;DHT22;55583;53.012;6.556;2023-03-23T02:25:25;10.40;99.90
52743;DHT22;55583;53.012;6.556;2023-03-23T02:28:10;10.30;99.90
52743;DHT22;55583;53.012;6.556;2023-03-23T02:31:01;10.30;99.90
52743;DHT22;55583;53.012;6.556;2023-03-23T02:33:37;10.20;99.90
52743;DHT22;55583;53.012;6.556;2023-03-23T02:36:28;10.20;99.90
52743;DHT22;55583;53.012;6.556;2023-03-23T02:39:03;10.20;99.90
52743;DHT22;55583;53.012;6.556;2023-03-23T02:41:36;10.20;99.90
52743;DHT22;55583;53.012;6.556;2023-03-23T02:44:03;10.20;99.90
52743;DHT22;55583;53.012;6.556;2023-03-23T02:46:30;10.20;99.90
52743;DHT22;55583;53.012;6.556;2023-03-23T02:48:57;10.20;99.90
52743;DHT22;55583;53.012;6.556;2023-03-23T02:51:24;10.20;99.90
52743;DHT22;55583;53.012;6.556;2023-03-23T02:53:51;10.20;99.90
52743;DHT22;55583;53.012;6.556;2023-03-23T02:56:19;10.20;99.90
52743;DHT22;55583;53.012;6.556;2023-03-23T02:58:46;10.20;99.90
52743;DHT22;55583;53.012;6.556;2023-03-23T03:01:16;10.30;99.90
52743;DHT22;55583;53.012;6.556;2023-03-23T03:04:17;10.20;99.90
52743;DHT22;55583;53.012;6.556;2023-03-23T03:09:33;10.20;99.90
52743;DHT22;55583;53.012;6.556;2023-03-23T03:12:18;10.20;99.90
52743;DHT22;55583;53.012;6.556;2023-03-23T03:17:35;10.20;99.90
52743;DHT22;55583;53.012;6.556;2023-03-23T03:20:07;10.20;99.90
52743;DHT22;55583;53.012;6.556;2023-03-23T03:22:38;10.20;99.90
52743;DHT22;55583;53.012;6.556;2023-03-23T03:25:08;10.20;99.90
52743;DHT22;55583;53.012;6.556;2023-03-23T03:27:38;10.10;99.90
52743;DHT22;55583;53.012;6.556;2023-03-23T03:30:08;10.10;99.90
52743;DHT22;55583;53.012;6.556;2023-03-23T03:32:41;10.10;99.90
52743;DHT22;55583;53.012;6.556;2023-03-23T03:35:09;10.10;99.90
52743;DHT22;55583;53.012;6.556;2023-03-23T03:37:37;10.20;99.90
52743;DHT22;55583;53.012;6.556;2023-03-23T03:40:11;10.10;99.90
52743;DHT22;55583;53.012;6.556;2023-03-23T03:42:38;10.20;99.90
52743;DHT22;55583;53.012;6.556;2023-03-23T03:45:06;10.20;99.90
52743;DHT22;55583;53.012;6.556;2023-03-23T03:47:32;10.20;99.90
52743;DHT22;55583;53.012;6.556;2023-03-23T03:49:58;10.20;99.90
52743;DHT22;55583;53.012;6.556;2023-03-23T03:52:24;10.20;99.90
52743;DHT22;55583;53.012;6.556;2023-03-23T03:54:49;10.20;99.90
52743;DHT22;55583;53.012;6.556;2023-03-23T03:57:15;10.20;99.90
52743;DHT22;55583;53.012;6.556;2023-03-23T03:59:43;10.20;99.90
52743;DHT22;55583;53.012;6.556;2023-03-23T04:02:09;10.40;99.90
52743;DHT22;55583;53.012;6.556;2023-03-23T04:04:39;10.20;99.90
52743;DHT22;55583;53.012;6.556;2023-03-23T04:07:05;10.20;99.90
52743;DHT22;55583;53.012;6.556;2023-03-23T04:09:31;10.20;99.90
52743;DHT22;55583;53.012;6.556;2023-03-23T04:11:57;10.20;99.90
52743;DHT22;55583;53.012;6.556;2023-03-23T04:14:22;10.20;99.90
52743;DHT22;55583;53.012;6.556;2023-03-23T04:16:48;10.20;99.90
52743;DHT22;55583;53.012;6.556;2023-03-23T04:19:17;10.10;99.90
52743;DHT22;55583;53.012;6.556;2023-03-23T04:21:44;10.20;99.90
52743;DHT22;55583;53.012;6.556;2023-03-23T04:24:15;10.20;99.90
52743;DHT22;55583;53.012;6.556;2023-03-23T04:26:40;10.20;99.90
52743;DHT22;55583;53.012;6.556;2023-03-23T04:29:08;10.20;99.90
52743;DHT22;55583;53.012;6.556;2023-03-23T04:31:34;10.20;99.90
52743;DHT22;55583;53.012;6.556;2023-03-23T04:34:01;10.60;99.90
52743;DHT22;55583;53.012;6.556;2023-03-23T04:36:27;10.20;99.90
52743;DHT22;55583;53.012;6.556;2023-03-23T04:38:55;10.20;99.90
52743;DHT22;55583;53.012;6.556;2023-03-23T04:41:24;10.20;99.90
52743;DHT22;55583;53.012;6.556;2023-03-23T04:43:50;10.20;99.90
52743;DHT22;55583;53.012;6.556;2023-03-23T04:46:18;10.10;99.90
52743;DHT22;55583;53.012;6.556;2023-03-23T04:48:44;10.00;99.90
52743;DHT22;55583;53.012;6.556;2023-03-23T04:51:10;9.90;99.90
52743;DHT22;55583;53.012;6.556;2023-03-23T04:53:37;9.80;99.90
52743;DHT22;55583;53.012;6.556;2023-03-23T04:56:03;9.80;99.90
52743;DHT22;55583;53.012;6.556;2023-03-23T04:58:29;9.90;99.90
52743;DHT22;55583;53.012;6.556;2023-03-23T05:00:59;9.90;99.90
52743;DHT22;55583;53.012;6.556;2023-03-23T05:03:25;9.90;99.90
52743;DHT22;55583;53.012;6.556;2023-03-23T05:05:53;9.90;99.90
52743;DHT22;55583;53.012;6.556;2023-03-23T05:08:23;9.80;99.90
52743;DHT22;55583;53.012;6.556;2023-03-23T05:10:54;9.80;99.90
52743;DHT22;55583;53.012;6.556;2023-03-23T05:13:21;9.80;99.90
52743;DHT22;55583;53.012;6.556;2023-03-23T05:15:47;9.90;99.90
52743;DHT22;55583;53.012;6.556;2023-03-23T05:18:14;9.70;99.90
52743;DHT22;55583;53.012;6.556;2023-03-23T05:20:40;9.70;99.90
52743;DHT22;55583;53.012;6.556;2023-03-23T05:23:10;9.60;99.90
52743;DHT22;55583;53.012;6.556;2023-03-23T05:25:36;9.60;99.90
52743;DHT22;55583;53.012;6.556;2023-03-23T05:28:07;9.50;99.90
52743;DHT22;55583;53.012;6.556;2023-03-23T05:30:33;9.40;99.90
52743;DHT22;55583;53.012;6.556;2023-03-23T05:32:59;9.40;99.90
52743;DHT22;55583;53.012;6.556;2023-03-23T05:35:25;9.40;99.90
52743;DHT22;55583;53.012;6.556;2023-03-23T05:37:51;9.40;99.90
52743;DHT22;55583;53.012;6.556;2023-03-23T05:40:18;9.30;99.90
52743;DHT22;55583;53.012;6.556;2023-03-23T05:42:46;9.40;99.90
52743;DHT22;55583;53.012;6.556;2023-03-23T05:45:12;9.40;99.90
52743;DHT22;55583;53.012;6.556;2023-03-23T05:47:39;9.50;99.90
52743;DHT22;55583;53.012;6.556;2023-03-23T05:50:06;9.40;99.90
52743;DHT22;55583;53.012;6.556;2023-03-23T05:52:34;9.40;99.90
52743;DHT22;55583;53.012;6.556;2023-03-23T05:55:01;9.40;99.90
52743;DHT22;55583;53.012;6.556;2023-03-23T05:57:26;9.50;99.90
52743;DHT22;55583;53.012;6.556;2023-03-23T05:59:53;9.70;99.90
52743;DHT22;55583;53.012;6.556;2023-03-23T06:02:18;9.60;99.90
52743;DHT22;55583;53.012;6.556;2023-03-23T06:04:44;9.60;99.90
52743;DHT22;55583;53.012;6.556;2023-03-23T06:07:10;9.60;99.90
52743;DHT22;55583;53.012;6.556;2023-03-23T06:09:40;9.60;99.90
52743;DHT22;55583;53.012;6.556;2023-03-23T06:12:07;9.60;99.90
52743;DHT22;55583;53.012;6.556;2023-03-23T06:14:33;9.70;99.90
52743;DHT22;55583;53.012;6.556;2023-03-23T06:16:59;9.60;99.90
52743;DHT22;55583;53.012;6.556;2023-03-23T06:19:25;9.60;99.90
52743;DHT22;55583;53.012;6.556;2023-03-23T06:21:53;9.80;99.90
52743;DHT22;55583;53.012;6.556;2023-03-23T06:24:19;9.60;99.90
52743;DHT22;55583;53.012;6.556;2023-03-23T06:26:45;9.60;99.90
52743;DHT22;55583;53.012;6.556;2023-03-23T06:29:11;9.60;99.90
52743;DHT22;55583;53.012;6.556;2023-03-23T06:31:45;9.60;99.90
52743;DHT22;55583;53.012;6.556;2023-03-23T06:34:11;9.70;99.90
52743;DHT22;55583;53.012;6.556;2023-03-23T06:36:37;9.70;99.90
52743;DHT22;55583;53.012;6.556;2023-03-23T06:39:04;10.20;99.90
52743;DHT22;55583;53.012;6.556;2023-03-23T06:41:33;9.70;99.90
52743;DHT22;55583;53.012;6.556;2023-03-23T06:44:00;9.70;99.90
52743;DHT22;55583;53.012;6.556;2023-03-23T06:46:26;9.70;99.90
52743;DHT22;55583;53.012;6.556;2023-03-23T06:48:53;9.80;99.90
52743;DHT22;55583;53.012;6.556;2023-03-23T06:51:19;9.80;99.90
52743;DHT22;55583;53.012;6.556;2023-03-23T06:53:45;9.80;99.90
52743;DHT22;55583;53.012;6.556;2023-03-23T06:56:11;9.90;99.90
52743;DHT22;55583;53.012;6.556;2023-03-23T06:58:38;9.90;99.90
52743;DHT22;55583;53.012;6.556;2023-03-23T07:01:04;10.00;99.90
52743;DHT22;55583;53.012;6.556;2023-03-23T07:03:30;10.00;99.90
52743;DHT22;55583;53.012;6.556;2023-03-23T07:05:57;10.00;99.90
52743;DHT22;55583;53.012;6.556;2023-03-23T07:08:22;10.00;99.90
52743;DHT22;55583;53.012;6.556;2023-03-23T07:10:51;10.00;99.90
52743;DHT22;55583;53.012;6.556;2023-03-23T07:13:18;10.00;99.90
52743;DHT22;55583;53.012;6.556;2023-03-23T07:15:44;10.10;99.90
52743;DHT22;55583;53.012;6.556;2023-03-23T07:18:10;10.10;99.90
52743;DHT22;55583;53.012;6.556;2023-03-23T07:20:36;10.10;99.90
52743;DHT22;55583;53.012;6.556;2023-03-23T07:23:02;10.10;99.90
52743;DHT22;55583;53.012;6.556;2023-03-23T07:25:31;10.10;99.90
52743;DHT22;55583;53.012;6.556;2023-03-23T07:27:56;10.10;99.90
52743;DHT22;55583;53.012;6.556;2023-03-23T07:30:22;10.20;99.90
52743;DHT22;55583;53.012;6.556;2023-03-23T07:32:48;10.20;99.90
52743;DHT22;55583;53.012;6.556;2023-03-23T07:35:13;10.60;99.90
52743;DHT22;55583;53.012;6.556;2023-03-23T07:37:39;10.50;99.90
52743;DHT22;55583;53.012;6.556;2023-03-23T07:40:05;10.40;99.90
52743;DHT22;55583;53.012;6.556;2023-03-23T07:42:43;10.50;99.90
52743;DHT22;55583;53.012;6.556;2023-03-23T07:45:13;10.60;99.90
52743;DHT22;55583;53.012;6.556;2023-03-23T07:47:39;10.60;99.90
52743;DHT22;55583;53.012;6.556;2023-03-23T07:50:06;10.70;99.90
52743;DHT22;55583;53.012;6.556;2023-03-23T07:52:33;10.60;99.90
52743;DHT22;55583;53.012;6.556;2023-03-23T07:54:59;10.90;99.90
52743;DHT22;55583;53.012;6.556;2023-03-23T07:57:27;10.90;99.90
52743;DHT22;55583;53.012;6.556;2023-03-23T07:59:53;10.70;99.90
52743;DHT22;55583;53.012;6.556;2023-03-23T08:02:18;11.20;99.90
52743;DHT22;55583;53.012;6.556;2023-03-23T08:04:45;10.80;99.90
52743;DHT22;55583;53.012;6.556;2023-03-23T08:07:11;10.80;99.90
52743;DHT22;55583;53.012;6.556;2023-03-23T08:09:38;10.90;99.90
52743;DHT22;55583;53.012;6.556;2023-03-23T08:12:04;10.90;99.90
52743;DHT22;55583;53.012;6.556;2023-03-23T08:14:30;10.90;99.90
52743;DHT22;55583;53.012;6.556;2023-03-23T08:16:56;11.00;99.90
52743;DHT22;55583;53.012;6.556;2023-03-23T08:19:22;11.00;99.90
52743;DHT22;55583;53.012;6.556;2023-03-23T08:21:48;11.10;99.90
52743;DHT22;55583;53.012;6.556;2023-03-23T08:24:15;11.10;99.90
52743;DHT22;55583;53.012;6.556;2023-03-23T08:26:40;11.20;99.90
52743;DHT22;55583;53.012;6.556;2023-03-23T08:29:07;11.30;99.90
52743;DHT22;55583;53.012;6.556;2023-03-23T08:31:34;11.30;99.90
52743;DHT22;55583;53.012;6.556;2023-03-23T08:34:04;11.40;99.90
52743;DHT22;55583;53.012;6.556;2023-03-23T08:36:32;11.30;99.90
52743;DHT22;55583;53.012;6.556;2023-03-23T08:38:57;11.30;99.90
52743;DHT22;55583;53.012;6.556;2023-03-23T08:41:23;11.50;99.90
52743;DHT22;55583;53.012;6.556;2023-03-23T08:43:49;11.40;99.90
52743;DHT22;55583;53.012;6.556;2023-03-23T08:46:15;11.60;99.90
52743;DHT22;55583;53.012;6.556;2023-03-23T08:48:42;11.60;99.90
52743;DHT22;55583;53.012;6.556;2023-03-23T08:51:09;11.80;99.90
52743;DHT22;55583;53.012;6.556;2023-03-23T08:53:35;12.40;99.90
52743;DHT22;55583;53.012;6.556;2023-03-23T08:56:10;13.00;99.90
52743;DHT22;55583;53.012;6.556;2023-03-23T08:58:38;12.90;99.90
52743;DHT22;55583;53.012;6.556;2023-03-23T09:01:05;13.10;99.90
52743;DHT22;55583;53.012;6.556;2023-03-23T09:03:32;13.00;99.90
52743;DHT22;55583;53.012;6.556;2023-03-23T09:06:04;12.70;99.90
52743;DHT22;55583;53.012;6.556;2023-03-23T09:08:31;12.70;99.90
52743;DHT22;55583;53.012;6.556;2023-03-23T09:11:04;12.90;99.90
52743;DHT22;55583;53.012;6.556;2023-03-23T09:13:30;12.90;99.90
52743;DHT22;55583;53.012;6.556;2023-03-23T09:15:56;13.10;99.90
52743;DHT22;55583;53.012;6.556;2023-03-23T09:18:23;13.30;99.90
52743;DHT22;55583;53.012;6.556;2023-03-23T09:20:52;13.20;99.90
52743;DHT22;55583;53.012;6.556;2023-03-23T09:23:18;13.20;99.90
52743;DHT22;55583;53.012;6.556;2023-03-23T09:25:46;13.30;99.90
52743;DHT22;55583;53.012;6.556;2023-03-23T09:28:11;13.30;99.90
52743;DHT22;55583;53.012;6.556;2023-03-23T09:30:38;13.20;99.90
52743;DHT22;55583;53.012;6.556;2023-03-23T09:33:04;13.70;99.90
52743;DHT22;55583;53.012;6.556;2023-03-23T09:35:32;14.20;99.90
52743;DHT22;55583;53.012;6.556;2023-03-23T09:37:59;14.40;99.90
52743;DHT22;55583;53.012;6.556;2023-03-23T09:40:31;14.30;99.90
52743;DHT22;55583;53.012;6.556;2023-03-23T09:43:29;14.10;99.90
52743;DHT22;55583;53.012;6.556;2023-03-23T09:46:41;14.10;99.90
52743;DHT22;55583;53.012;6.556;2023-03-23T09:49:13;14.60;99.90
52743;DHT22;55583;53.012;6.556;2023-03-23T09:52:05;14.90;99.90
52743;DHT22;55583;53.012;6.556;2023-03-23T09:54:38;15.90;99.90
52743;DHT22;55583;53.012;6.556;2023-03-23T09:57:31;17.60;99.90
52743;DHT22;55583;53.012;6.556;2023-03-23T10:00:03;19.30;93.70
52743;DHT22;55583;53.012;6.556;2023-03-23T10:02:39;19.90;66.20
52743;DHT22;55583;53.012;6.556;2023-03-23T10:05:35;21.00;69.50
52743;DHT22;55583;53.012;6.556;2023-03-23T10:08:16;21.60;71.40
52743;DHT22;55583;53.012;6.556;2023-03-23T10:16:11;21.50;73.80
52743;DHT22;55583;53.012;6.556;2023-03-23T10:18:52;20.70;74.00
52743;DHT22;55583;53.012;6.556;2023-03-23T10:21:23;20.00;68.20
52743;DHT22;55583;53.012;6.556;2023-03-23T10:24:02;20.00;78.00
52743;DHT22;55583;53.012;6.556;2023-03-23T10:29:21;19.90;66.10
52743;DHT22;55583;53.012;6.556;2023-03-23T10:32:13;19.40;78.80
52743;DHT22;55583;53.012;6.556;2023-03-23T10:35:03;18.70;67.20
52743;DHT22;55583;53.012;6.556;2023-03-23T10:37:38;18.00;69.00
52743;DHT22;55583;53.012;6.556;2023-03-23T10:40:11;17.70;76.10
52743;DHT22;55583;53.012;6.556;2023-03-23T10:42:40;18.30;75.90
52743;DHT22;55583;53.012;6.556;2023-03-23T10:45:30;19.80;78.40
52743;DHT22;55583;53.012;6.556;2023-03-23T10:50:35;19.20;65.90
52743;DHT22;55583;53.012;6.556;2023-03-23T10:53:13;18.20;71.30
52743;DHT22;55583;53.012;6.556;2023-03-23T10:55:41;17.60;70.60
52743;DHT22;55583;53.012;6.556;2023-03-23T10:58:11;18.20;74.90
52743;DHT22;55583;53.012;6.556;2023-03-23T11:00:44;19.00;70.50
52743;DHT22;55583;53.012;6.556;2023-03-23T11:08:27;20.60;61.00
52743;DHT22;55583;53.012;6.556;2023-03-23T11:13:39;21.30;67.90
52743;DHT22;55583;53.012;6.556;2023-03-23T11:16:07;21.70;66.60
52743;DHT22;55583;53.012;6.556;2023-03-23T11:18:42;21.10;65.70
52743;DHT22;55583;53.012;6.556;2023-03-23T11:21:11;21.40;62.70
52743;DHT22;55583;53.012;6.556;2023-03-23T11:23:40;21.40;62.60
52743;DHT22;55583;53.012;6.556;2023-03-23T11:29:02;22.20;60.00
52743;DHT22;55583;53.012;6.556;2023-03-23T11:31:40;23.00;58.30
52743;DHT22;55583;53.012;6.556;2023-03-23T11:34:19;23.70;57.50
52743;DHT22;55583;53.012;6.556;2023-03-23T11:37:00;24.80;61.40
52743;DHT22;55583;53.012;6.556;2023-03-23T11:39:35;25.70;53.50
52743;DHT22;55583;53.012;6.556;2023-03-23T11:42:20;26.10;56.20
52743;DHT22;55583;53.012;6.556;2023-03-23T11:44:46;26.20;52.70
52743;DHT22;55583;53.012;6.556;2023-03-23T11:47:29;25.30;51.90
52743;DHT22;55583;53.012;6.556;2023-03-23T11:52:33;23.70;54.10
52743;DHT22;55583;53.012;6.556;2023-03-23T11:55:13;23.60;54.70
52743;DHT22;55583;53.012;6.556;2023-03-23T11:57:40;23.00;51.60
52743;DHT22;55583;53.012;6.556;2023-03-23T12:00:18;23.10;54.70
52743;DHT22;55583;53.012;6.556;2023-03-23T12:02:56;23.60;49.60
52743;DHT22;55583;53.012;6.556;2023-03-23T12:11:18;24.20;50.80
52743;DHT22;55583;53.012;6.556;2023-03-23T12:14:07;23.00;49.20
52743;DHT22;55583;53.012;6.556;2023-03-23T12:16:58;21.40;51.50
52743;DHT22;55583;53.012;6.556;2023-03-23T12:23:05;19.90;57.00
52743;DHT22;55583;53.012;6.556;2023-03-23T12:30:35;18.90;58.30
52743;DHT22;55583;53.012;6.556;2023-03-23T12:41:35;21.10;53.40
52743;DHT22;55583;53.012;6.556;2023-03-23T12:44:09;21.20;53.90
52743;DHT22;55583;53.012;6.556;2023-03-23T12:49:26;19.60;56.30
52743;DHT22;55583;53.012;6.556;2023-03-23T12:52:06;18.80;56.60
52743;DHT22;55583;53.012;6.556;2023-03-23T12:54:42;18.10;59.60
52743;DHT22;55583;53.012;6.556;2023-03-23T12:57:35;17.70;60.40
52743;DHT22;55583;53.012;6.556;2023-03-23T13:00:25;17.50;61.10
52743;DHT22;55583;53.012;6.556;2023-03-23T13:08:09;17.90;62.10
52743;DHT22;55583;53.012;6.556;2023-03-23T13:10:59;18.10;61.00
52743;DHT22;55583;53.012;6.556;2023-03-23T13:13:51;18.20;60.40
52743;DHT22;55583;53.012;6.556;2023-03-23T13:16:41;18.00;61.10
52743;DHT22;55583;53.012;6.556;2023-03-23T13:21:50;17.50;63.50
52743;DHT22;55583;53.012;6.556;2023-03-23T13:24:21;17.30;63.50
52743;DHT22;55583;53.012;6.556;2023-03-23T13:26:50;17.10;63.90
52743;DHT22;55583;53.012;6.556;2023-03-23T13:29:20;16.90;64.50
52743;DHT22;55583;53.012;6.556;2023-03-23T13:31:49;16.70;65.50
52743;DHT22;55583;53.012;6.556;2023-03-23T13:34:24;16.70;65.80
52743;DHT22;55583;53.012;6.556;2023-03-23T13:39:28;16.90;65.40
52743;DHT22;55583;53.012;6.556;2023-03-23T13:54:47;17.90;64.90
52743;DHT22;55583;53.012;6.556;2023-03-23T13:57:33;18.10;65.10
52743;DHT22;55583;53.012;6.556;2023-03-23T14:00:25;18.20;62.80
52743;DHT22;55583;53.012;6.556;2023-03-23T14:02:51;18.10;62.70
52743;DHT22;55583;53.012;6.556;2023-03-23T14:05:31;17.80;64.10
52743;DHT22;55583;53.012;6.556;2023-03-23T14:08:10;17.50;62.80
52743;DHT22;55583;53.012;6.556;2023-03-23T14:13:31;17.20;64.70
52743;DHT22;55583;53.012;6.556;2023-03-23T14:16:12;17.40;63.90
52743;DHT22;55583;53.012;6.556;2023-03-23T14:18:41;17.40;64.20
52743;DHT22;55583;53.012;6.556;2023-03-23T14:21:26;17.30;64.10
52743;DHT22;55583;53.012;6.556;2023-03-23T14:23:55;17.40;63.40
52743;DHT22;55583;53.012;6.556;2023-03-23T14:26:22;17.30;65.40
52743;DHT22;55583;53.012;6.556;2023-03-23T14:28:52;17.10;65.20
52743;DHT22;55583;53.012;6.556;2023-03-23T14:31:26;16.70;64.70
52743;DHT22;55583;53.012;6.556;2023-03-23T14:33:54;16.40;65.30
52743;DHT22;55583;53.012;6.556;2023-03-23T14:36:22;16.40;67.30
52743;DHT22;55583;53.012;6.556;2023-03-23T14:38:55;16.70;67.20
52743;DHT22;55583;53.012;6.556;2023-03-23T14:41:22;17.00;67.80
52743;DHT22;55583;53.012;6.556;2023-03-23T14:43:48;17.30;67.90
52743;DHT22;55583;53.012;6.556;2023-03-23T14:46:14;17.80;66.70
52743;DHT22;55583;53.012;6.556;2023-03-23T14:48:40;18.00;65.80
52743;DHT22;55583;53.012;6.556;2023-03-23T14:51:06;18.00;65.20
52743;DHT22;55583;53.012;6.556;2023-03-23T14:53:39;18.00;64.50
52743;DHT22;55583;53.012;6.556;2023-03-23T14:56:15;17.90;62.30
52743;DHT22;55583;53.012;6.556;2023-03-23T14:58:48;18.00;62.30
52743;DHT22;55583;53.012;6.556;2023-03-23T15:01:20;18.20;63.70
52743;DHT22;55583;53.012;6.556;2023-03-23T15:03:55;18.20;61.50
52743;DHT22;55583;53.012;6.556;2023-03-23T15:06:23;18.00;61.50
52743;DHT22;55583;53.012;6.556;2023-03-23T15:08:54;17.70;63.10
52743;DHT22;55583;53.012;6.556;2023-03-23T15:11:22;17.40;63.60
52743;DHT22;55583;53.012;6.556;2023-03-23T15:13:56;17.20;64.70
52743;DHT22;55583;53.012;6.556;2023-03-23T15:16:25;17.30;64.20
52743;DHT22;55583;53.012;6.556;2023-03-23T15:21:28;17.60;64.50
52743;DHT22;55583;53.012;6.556;2023-03-23T15:23:55;17.80;64.70
52743;DHT22;55583;53.012;6.556;2023-03-23T15:26:26;17.80;64.30
52743;DHT22;55583;53.012;6.556;2023-03-23T15:29:10;17.80;63.40
52743;DHT22;55583;53.012;6.556;2023-03-23T15:31:51;18.00;61.70
52743;DHT22;55583;53.012;6.556;2023-03-23T15:34:24;18.20;61.90
52743;DHT22;55583;53.012;6.556;2023-03-23T15:36:56;18.40;61.80
52743;DHT22;55583;53.012;6.556;2023-03-23T15:39:22;18.40;61.40
52743;DHT22;55583;53.012;6.556;2023-03-23T15:41:49;18.20;61.50
52743;DHT22;55583;53.012;6.556;2023-03-23T15:44:30;18.10;62.10
52743;DHT22;55583;53.012;6.556;2023-03-23T15:47:12;18.30;59.70
52743;DHT22;55583;53.012;6.556;2023-03-23T15:49:39;18.50;60.80
52743;DHT22;55583;53.012;6.556;2023-03-23T15:52:11;18.60;61.80
52743;DHT22;55583;53.012;6.556;2023-03-23T15:54:38;18.60;59.90
52743;DHT22;55583;53.012;6.556;2023-03-23T15:57:04;18.40;59.90
52743;DHT22;55583;53.012;6.556;2023-03-23T15:59:30;18.30;60.30
52743;DHT22;55583;53.012;6.556;2023-03-23T16:01:56;18.10;60.60
52743;DHT22;55583;53.012;6.556;2023-03-23T16:04:22;18.00;61.80
52743;DHT22;55583;53.012;6.556;2023-03-23T16:06:49;18.00;62.10
52743;DHT22;55583;53.012;6.556;2023-03-23T16:09:17;18.00;61.50
52743;DHT22;55583;53.012;6.556;2023-03-23T16:11:44;17.70;60.70
52743;DHT22;55583;53.012;6.556;2023-03-23T16:14:10;17.30;61.60
52743;DHT22;55583;53.012;6.556;2023-03-23T16:16:43;17.10;62.50
52743;DHT22;55583;53.012;6.556;2023-03-23T16:19:12;16.90;62.90
52743;DHT22;55583;53.012;6.556;2023-03-23T16:21:38;16.70;63.50
52743;DHT22;55583;53.012;6.556;2023-03-23T16:24:04;16.70;63.70
52743;DHT22;55583;53.012;6.556;2023-03-23T16:26:30;16.50;64.40
52743;DHT22;55583;53.012;6.556;2023-03-23T16:28:56;16.40;65.30
52743;DHT22;55583;53.012;6.556;2023-03-23T16:31:21;16.30;65.50
52743;DHT22;55583;53.012;6.556;2023-03-23T16:33:47;16.20;65.60
52743;DHT22;55583;53.012;6.556;2023-03-23T16:36:13;16.00;66.00
52743;DHT22;55583;53.012;6.556;2023-03-23T16:38:40;15.90;66.60
52743;DHT22;55583;53.012;6.556;2023-03-23T16:41:06;15.70;66.90
52743;DHT22;55583;53.012;6.556;2023-03-23T16:43:32;15.50;67.20
52743;DHT22;55583;53.012;6.556;2023-03-23T16:45:57;15.30;68.10
52743;DHT22;55583;53.012;6.556;2023-03-23T16:48:23;15.30;68.80
52743;DHT22;55583;53.012;6.556;2023-03-23T16:50:50;15.20;68.80
52743;DHT22;55583;53.012;6.556;2023-03-23T16:53:16;15.10;69.30
52743;DHT22;55583;53.012;6.556;2023-03-23T16:55:42;15.10;69.90
52743;DHT22;55583;53.012;6.556;2023-03-23T16:58:12;14.90;69.90
52743;DHT22;55583;53.012;6.556;2023-03-23T17:00:39;14.80;70.60
52743;DHT22;55583;53.012;6.556;2023-03-23T17:03:05;14.60;71.30
52743;DHT22;55583;53.012;6.556;2023-03-23T17:05:34;14.50;71.40
52743;DHT22;55583;53.012;6.556;2023-03-23T17:08:00;14.40;71.90
52743;DHT22;55583;53.012;6.556;2023-03-23T17:10:29;14.20;72.10
52743;DHT22;55583;53.012;6.556;2023-03-23T17:12:55;14.20;72.40
52743;DHT22;55583;53.012;6.556;2023-03-23T17:15:21;14.10;72.90
52743;DHT22;55583;53.012;6.556;2023-03-23T17:17:48;14.10;73.30
52743;DHT22;55583;53.012;6.556;2023-03-23T17:20:14;14.00;73.70